sensor_id;sensor_type;location;lat;lon;timestamp;P1;durP1;ratioP1;P2;durP2;ratioP2
64857;SDS011;51335;51.148;6.950;2023-08-17T00:00:18;7.90;;;4.35;;
64857;SDS011;51335;51.148;6.950;2023-08-17T00:00:48;6.68;;;4.45;;
64857;SDS011;51335;51.148;6.950;2023-08-17T00:01:19;7.55;;;4.80;;
64857;SDS011;51335;51.148;6.950;2023-08-17T00:01:49;11.02;;;5.03;;
64857;SDS011;51335;51.148;6.950;2023-08-17T00:02:20;9.02;;;4.70;;
64857;SDS011;51335;51.148;6.950;2023-08-17T00:02:50;9.85;;;4.93;;
64857;SDS011;51335;51.148;6.950;2023-08-17T00:03:21;7.28;;;4.90;;
64857;SDS011;51335;51.148;6.950;2023-08-17T00:03:51;6.85;;;4.53;;
64857;SDS011;51335;51.148;6.950;2023-08-17T00:04:21;6.53;;;4.65;;
64857;SDS011;51335;51.148;6.950;2023-08-17T00:04:52;7.20;;;4.63;;
64857;SDS011;51335;51.148;6.950;2023-08-17T00:05:22;9.35;;;4.88;;
64857;SDS011;51335;51.148;6.950;2023-08-17T00:05:55;11.05;;;4.65;;
64857;SDS011;51335;51.148;6.950;2023-08-17T00:06:29;7.55;;;4.78;;
64857;SDS011;51335;51.148;6.950;2023-08-17T00:06:59;8.40;;;4.93;;
64857;SDS011;51335;51.148;6.950;2023-08-17T00:07:30;11.40;;;4.97;;
64857;SDS011;51335;51.148;6.950;2023-08-17T00:08:00;10.57;;;4.60;;
64857;SDS011;51335;51.148;6.950;2023-08-17T00:08:30;7.78;;;4.88;;
64857;SDS011;51335;51.148;6.950;2023-08-17T00:09:01;7.10;;;4.40;;
64857;SDS011;51335;51.148;6.950;2023-08-17T00:09:31;8.07;;;4.63;;
64857;SDS011;51335;51.148;6.950;2023-08-17T00:10:02;7.03;;;4.88;;
64857;SDS011;51335;51.148;6.950;2023-08-17T00:10:33;7.60;;;4.65;;
64857;SDS011;51335;51.148;6.950;2023-08-17T00:11:03;7.10;;;4.32;;
64857;SDS011;51335;51.148;6.950;2023-08-17T00:11:33;7.00;;;4.82;;
64857;SDS011;51335;51.148;6.950;2023-08-17T00:12:04;8.80;;;5.10;;
64857;SDS011;51335;51.148;6.950;2023-08-17T00:12:34;7.28;;;4.60;;
64857;SDS011;51335;51.148;6.950;2023-08-17T00:13:04;7.07;;;4.80;;
64857;SDS011;51335;51.148;6.950;2023-08-17T00:13:35;8.15;;;4.97;;
64857;SDS011;51335;51.148;6.950;2023-08-17T00:14:05;8.57;;;4.93;;
64857;SDS011;51335;51.148;6.950;2023-08-17T00:14:35;7.53;;;4.93;;
64857;SDS011;51335;51.148;6.950;2023-08-17T00:15:06;11.57;;;4.88;;
64857;SDS011;51335;51.148;6.950;2023-08-17T00:15:36;8.15;;;5.22;;
64857;SDS011;51335;51.148;6.950;2023-08-17T00:16:07;6.28;;;4.78;;
64857;SDS011;51335;51.148;6.950;2023-08-17T00:16:37;9.45;;;5.10;;
64857;SDS011;51335;51.148;6.950;2023-08-17T00:17:07;8.30;;;5.63;;
64857;SDS011;51335;51.148;6.950;2023-08-17T00:17:38;7.18;;;5.60;;
64857;SDS011;51335;51.148;6.950;2023-08-17T00:18:08;10.02;;;5.00;;
64857;SDS011;51335;51.148;6.950;2023-08-17T00:18:38;9.15;;;5.38;;
64857;SDS011;51335;51.148;6.950;2023-08-17T00:19:08;6.88;;;5.15;;
64857;SDS011;51335;51.148;6.950;2023-08-17T00:19:39;7.63;;;5.40;;
64857;SDS011;51335;51.148;6.950;2023-08-17T00:20:09;6.07;;;5.00;;
64857;SDS011;51335;51.148;6.950;2023-08-17T00:20:39;7.15;;;5.10;;
64857;SDS011;51335;51.148;6.950;2023-08-17T00:21:10;9.85;;;5.18;;
64857;SDS011;51335;51.148;6.950;2023-08-17T00:21:40;7.40;;;5.47;;
64857;SDS011;51335;51.148;6.950;2023-08-17T00:22:10;8.15;;;5.40;;
64857;SDS011;51335;51.148;6.950;2023-08-17T00:22:41;7.30;;;4.85;;
64857;SDS011;51335;51.148;6.950;2023-08-17T00:23:11;8.23;;;5.07;;
64857;SDS011;51335;51.148;6.950;2023-08-17T00:23:41;8.27;;;4.85;;
64857;SDS011;51335;51.148;6.950;2023-08-17T00:24:11;9.05;;;5.00;;
64857;SDS011;51335;51.148;6.950;2023-08-17T00:24:42;7.53;;;5.13;;
64857;SDS011;51335;51.148;6.950;2023-08-17T00:25:13;7.03;;;4.72;;
64857;SDS011;51335;51.148;6.950;2023-08-17T00:25:44;9.82;;;5.18;;
64857;SDS011;51335;51.148;6.950;2023-08-17T00:26:14;8.48;;;5.13;;
64857;SDS011;51335;51.148;6.950;2023-08-17T00:26:44;7.05;;;5.10;;
64857;SDS011;51335;51.148;6.950;2023-08-17T00:27:15;6.43;;;5.40;;
64857;SDS011;51335;51.148;6.950;2023-08-17T00:27:45;8.93;;;5.75;;
64857;SDS011;51335;51.148;6.950;2023-08-17T00:28:15;5.53;;;4.82;;
64857;SDS011;51335;51.148;6.950;2023-08-17T00:28:45;7.10;;;5.30;;
64857;SDS011;51335;51.148;6.950;2023-08-17T00:29:16;8.65;;;5.10;;
64857;SDS011;51335;51.148;6.950;2023-08-17T00:29:46;9.40;;;5.35;;
64857;SDS011;51335;51.148;6.950;2023-08-17T00:30:16;10.23;;;5.38;;
64857;SDS011;51335;51.148;6.950;2023-08-17T00:30:46;8.60;;;5.20;;
64857;SDS011;51335;51.148;6.950;2023-08-17T00:31:16;9.80;;;5.65;;
64857;SDS011;51335;51.148;6.950;2023-08-17T00:31:47;9.05;;;4.93;;
64857;SDS011;51335;51.148;6.950;2023-08-17T00:32:17;8.70;;;5.70;;
64857;SDS011;51335;51.148;6.950;2023-08-17T00:32:47;7.15;;;5.38;;
64857;SDS011;51335;51.148;6.950;2023-08-17T00:33:18;8.27;;;4.88;;
64857;SDS011;51335;51.148;6.950;2023-08-17T00:33:48;6.85;;;5.10;;
64857;SDS011;51335;51.148;6.950;2023-08-17T00:34:18;6.30;;;4.82;;
64857;SDS011;51335;51.148;6.950;2023-08-17T00:34:48;7.97;;;5.20;;
64857;SDS011;51335;51.148;6.950;2023-08-17T00:35:19;6.55;;;5.13;;
64857;SDS011;51335;51.148;6.950;2023-08-17T00:35:49;8.25;;;5.30;;
64857;SDS011;51335;51.148;6.950;2023-08-17T00:36:20;7.93;;;5.13;;
64857;SDS011;51335;51.148;6.950;2023-08-17T00:36:50;9.02;;;5.35;;
64857;SDS011;51335;51.148;6.950;2023-08-17T00:37:20;7.32;;;5.20;;
64857;SDS011;51335;51.148;6.950;2023-08-17T00:37:51;9.23;;;5.35;;
64857;SDS011;51335;51.148;6.950;2023-08-17T00:38:21;8.63;;;5.55;;
64857;SDS011;51335;51.148;6.950;2023-08-17T00:38:51;7.85;;;5.15;;
64857;SDS011;51335;51.148;6.950;2023-08-17T00:39:21;9.10;;;5.57;;
64857;SDS011;51335;51.148;6.950;2023-08-17T00:39:52;9.38;;;5.38;;
64857;SDS011;51335;51.148;6.950;2023-08-17T00:40:22;8.63;;;5.60;;
64857;SDS011;51335;51.148;6.950;2023-08-17T00:40:52;8.05;;;5.55;;
64857;SDS011;51335;51.148;6.950;2023-08-17T00:41:22;7.65;;;5.38;;
64857;SDS011;51335;51.148;6.950;2023-08-17T00:41:53;8.23;;;5.95;;
64857;SDS011;51335;51.148;6.950;2023-08-17T00:42:23;9.63;;;5.80;;
64857;SDS011;51335;51.148;6.950;2023-08-17T00:42:53;8.25;;;6.00;;
64857;SDS011;51335;51.148;6.950;2023-08-17T00:43:24;8.30;;;5.40;;
64857;SDS011;51335;51.148;6.950;2023-08-17T00:43:54;6.95;;;5.50;;
64857;SDS011;51335;51.148;6.950;2023-08-17T00:44:24;8.93;;;6.05;;
64857;SDS011;51335;51.148;6.950;2023-08-17T00:44:54;9.10;;;5.82;;
64857;SDS011;51335;51.148;6.950;2023-08-17T00:45:25;8.77;;;5.63;;
64857;SDS011;51335;51.148;6.950;2023-08-17T00:45:56;7.35;;;6.32;;
64857;SDS011;51335;51.148;6.950;2023-08-17T00:46:27;10.07;;;6.10;;
64857;SDS011;51335;51.148;6.950;2023-08-17T00:46:59;8.18;;;5.90;;
64857;SDS011;51335;51.148;6.950;2023-08-17T00:47:29;7.90;;;5.82;;
64857;SDS011;51335;51.148;6.950;2023-08-17T00:47:59;7.75;;;5.85;;
64857;SDS011;51335;51.148;6.950;2023-08-17T00:48:30;6.70;;;6.00;;
64857;SDS011;51335;51.148;6.950;2023-08-17T00:49:00;6.57;;;5.70;;
64857;SDS011;51335;51.148;6.950;2023-08-17T00:49:31;8.00;;;5.63;;
64857;SDS011;51335;51.148;6.950;2023-08-17T00:50:02;7.18;;;5.85;;
64857;SDS011;51335;51.148;6.950;2023-08-17T00:50:32;10.02;;;5.85;;
64857;SDS011;51335;51.148;6.950;2023-08-17T00:51:04;8.88;;;6.45;;
64857;SDS011;51335;51.148;6.950;2023-08-17T00:51:35;8.82;;;5.90;;
64857;SDS011;51335;51.148;6.950;2023-08-17T00:52:05;7.95;;;6.30;;
64857;SDS011;51335;51.148;6.950;2023-08-17T00:52:35;9.35;;;6.43;;
64857;SDS011;51335;51.148;6.950;2023-08-17T00:53:06;8.77;;;6.43;;
64857;SDS011;51335;51.148;6.950;2023-08-17T00:53:36;8.82;;;6.35;;
64857;SDS011;51335;51.148;6.950;2023-08-17T00:54:07;8.98;;;6.43;;
64857;SDS011;51335;51.148;6.950;2023-08-17T00:54:38;9.70;;;6.90;;
64857;SDS011;51335;51.148;6.950;2023-08-17T00:55:09;10.73;;;7.10;;
64857;SDS011;51335;51.148;6.950;2023-08-17T00:55:40;10.70;;;7.00;;
64857;SDS011;51335;51.148;6.950;2023-08-17T00:56:10;11.63;;;6.93;;
64857;SDS011;51335;51.148;6.950;2023-08-17T00:56:41;12.18;;;7.30;;
64857;SDS011;51335;51.148;6.950;2023-08-17T00:57:11;11.20;;;7.13;;
64857;SDS011;51335;51.148;6.950;2023-08-17T00:57:42;12.02;;;7.45;;
64857;SDS011;51335;51.148;6.950;2023-08-17T00:58:13;7.55;;;6.75;;
64857;SDS011;51335;51.148;6.950;2023-08-17T00:58:44;10.10;;;7.45;;
64857;SDS011;51335;51.148;6.950;2023-08-17T00:59:14;10.18;;;7.75;;
64857;SDS011;51335;51.148;6.950;2023-08-17T00:59:45;7.88;;;7.07;;
64857;SDS011;51335;51.148;6.950;2023-08-17T01:00:16;8.95;;;7.28;;
64857;SDS011;51335;51.148;6.950;2023-08-17T01:00:46;8.75;;;7.78;;
64857;SDS011;51335;51.148;6.950;2023-08-17T01:01:17;10.13;;;7.47;;
64857;SDS011;51335;51.148;6.950;2023-08-17T01:01:47;8.27;;;6.88;;
64857;SDS011;51335;51.148;6.950;2023-08-17T01:02:18;8.80;;;7.20;;
64857;SDS011;51335;51.148;6.950;2023-08-17T01:02:49;10.82;;;7.30;;
64857;SDS011;51335;51.148;6.950;2023-08-17T01:03:20;11.60;;;7.57;;
64857;SDS011;51335;51.148;6.950;2023-08-17T01:03:52;8.68;;;7.45;;
64857;SDS011;51335;51.148;6.950;2023-08-17T01:04:22;8.45;;;7.20;;
64857;SDS011;51335;51.148;6.950;2023-08-17T01:04:52;8.55;;;7.60;;
64857;SDS011;51335;51.148;6.950;2023-08-17T01:05:23;11.02;;;7.68;;
64857;SDS011;51335;51.148;6.950;2023-08-17T01:05:53;8.43;;;7.22;;
64857;SDS011;51335;51.148;6.950;2023-08-17T01:06:24;9.48;;;7.03;;
64857;SDS011;51335;51.148;6.950;2023-08-17T01:06:54;11.05;;;7.20;;
64857;SDS011;51335;51.148;6.950;2023-08-17T01:07:24;11.73;;;7.05;;
64857;SDS011;51335;51.148;6.950;2023-08-17T01:07:54;9.77;;;7.10;;
64857;SDS011;51335;51.148;6.950;2023-08-17T01:08:25;10.15;;;6.85;;
64857;SDS011;51335;51.148;6.950;2023-08-17T01:08:55;9.98;;;7.18;;
64857;SDS011;51335;51.148;6.950;2023-08-17T01:09:26;8.65;;;7.00;;
64857;SDS011;51335;51.148;6.950;2023-08-17T01:09:56;8.27;;;7.15;;
64857;SDS011;51335;51.148;6.950;2023-08-17T01:11:36;11.30;;;6.53;;
64857;SDS011;51335;51.148;6.950;2023-08-17T01:12:33;11.70;;;6.82;;
64857;SDS011;51335;51.148;6.950;2023-08-17T01:13:25;8.00;;;6.60;;
64857;SDS011;51335;51.148;6.950;2023-08-17T01:14:06;9.38;;;6.15;;
64857;SDS011;51335;51.148;6.950;2023-08-17T01:14:44;7.70;;;6.60;;
64857;SDS011;51335;51.148;6.950;2023-08-17T01:15:36;14.02;;;6.82;;
64857;SDS011;51335;51.148;6.950;2023-08-17T01:16:10;7.80;;;6.60;;
64857;SDS011;51335;51.148;6.950;2023-08-17T01:16:48;8.43;;;6.97;;
64857;SDS011;51335;51.148;6.950;2023-08-17T01:17:26;7.72;;;6.93;;
64857;SDS011;51335;51.148;6.950;2023-08-17T01:18:17;11.25;;;7.25;;
64857;SDS011;51335;51.148;6.950;2023-08-17T01:18:52;7.78;;;6.93;;
64857;SDS011;51335;51.148;6.950;2023-08-17T01:19:26;8.55;;;6.80;;
64857;SDS011;51335;51.148;6.950;2023-08-17T01:19:57;8.63;;;7.00;;
64857;SDS011;51335;51.148;6.950;2023-08-17T01:20:28;9.70;;;6.75;;
64857;SDS011;51335;51.148;6.950;2023-08-17T01:21:01;10.35;;;7.40;;
64857;SDS011;51335;51.148;6.950;2023-08-17T01:21:44;9.15;;;6.60;;
64857;SDS011;51335;51.148;6.950;2023-08-17T01:22:20;10.77;;;7.35;;
64857;SDS011;51335;51.148;6.950;2023-08-17T01:22:53;11.82;;;7.30;;
64857;SDS011;51335;51.148;6.950;2023-08-17T01:23:26;8.02;;;6.88;;
64857;SDS011;51335;51.148;6.950;2023-08-17T01:23:57;8.18;;;6.70;;
64857;SDS011;51335;51.148;6.950;2023-08-17T01:24:27;9.15;;;7.05;;
64857;SDS011;51335;51.148;6.950;2023-08-17T01:24:58;8.15;;;6.82;;
64857;SDS011;51335;51.148;6.950;2023-08-17T01:25:28;9.48;;;6.63;;
64857;SDS011;51335;51.148;6.950;2023-08-17T01:25:58;11.27;;;7.10;;
64857;SDS011;51335;51.148;6.950;2023-08-17T01:26:28;12.15;;;6.65;;
64857;SDS011;51335;51.148;6.950;2023-08-17T01:26:59;9.05;;;6.70;;
64857;SDS011;51335;51.148;6.950;2023-08-17T01:27:41;9.52;;;7.18;;
64857;SDS011;51335;51.148;6.950;2023-08-17T01:28:13;9.88;;;7.10;;
64857;SDS011;51335;51.148;6.950;2023-08-17T01:28:44;9.40;;;6.63;;
64857;SDS011;51335;51.148;6.950;2023-08-17T01:29:16;11.70;;;7.35;;
64857;SDS011;51335;51.148;6.950;2023-08-17T01:29:47;9.35;;;6.40;;
64857;SDS011;51335;51.148;6.950;2023-08-17T01:30:17;9.43;;;6.97;;
64857;SDS011;51335;51.148;6.950;2023-08-17T01:31:38;10.93;;;6.43;;
64857;SDS011;51335;51.148;6.950;2023-08-17T01:32:25;8.70;;;6.80;;
64857;SDS011;51335;51.148;6.950;2023-08-17T01:33:03;11.75;;;6.40;;
64857;SDS011;51335;51.148;6.950;2023-08-17T01:33:38;10.77;;;6.78;;
64857;SDS011;51335;51.148;6.950;2023-08-17T01:34:14;9.35;;;6.53;;
64857;SDS011;51335;51.148;6.950;2023-08-17T01:34:54;8.63;;;6.10;;
64857;SDS011;51335;51.148;6.950;2023-08-17T01:35:46;9.70;;;6.60;;
64857;SDS011;51335;51.148;6.950;2023-08-17T01:36:25;12.30;;;6.30;;
64857;SDS011;51335;51.148;6.950;2023-08-17T01:37:00;8.05;;;6.40;;
64857;SDS011;51335;51.148;6.950;2023-08-17T01:37:31;8.23;;;6.38;;
64857;SDS011;51335;51.148;6.950;2023-08-17T01:38:05;11.02;;;6.50;;
64857;SDS011;51335;51.148;6.950;2023-08-17T01:38:40;10.02;;;6.50;;
64857;SDS011;51335;51.148;6.950;2023-08-17T01:39:10;11.05;;;6.30;;
64857;SDS011;51335;51.148;6.950;2023-08-17T01:39:43;11.18;;;6.40;;
64857;SDS011;51335;51.148;6.950;2023-08-17T01:40:14;6.90;;;6.20;;
64857;SDS011;51335;51.148;6.950;2023-08-17T01:40:45;8.80;;;6.30;;
64857;SDS011;51335;51.148;6.950;2023-08-17T01:41:18;9.13;;;5.95;;
64857;SDS011;51335;51.148;6.950;2023-08-17T01:41:50;10.63;;;6.80;;
64857;SDS011;51335;51.148;6.950;2023-08-17T01:42:22;9.52;;;6.20;;
64857;SDS011;51335;51.148;6.950;2023-08-17T01:42:54;7.53;;;6.53;;
64857;SDS011;51335;51.148;6.950;2023-08-17T01:43:25;9.88;;;6.50;;
64857;SDS011;51335;51.148;6.950;2023-08-17T01:43:56;11.65;;;6.95;;
64857;SDS011;51335;51.148;6.950;2023-08-17T01:44:27;10.52;;;6.50;;
64857;SDS011;51335;51.148;6.950;2023-08-17T01:44:58;9.27;;;7.00;;
64857;SDS011;51335;51.148;6.950;2023-08-17T01:45:28;8.10;;;6.57;;
64857;SDS011;51335;51.148;6.950;2023-08-17T01:45:59;9.38;;;6.60;;
64857;SDS011;51335;51.148;6.950;2023-08-17T01:46:30;8.18;;;6.18;;
64857;SDS011;51335;51.148;6.950;2023-08-17T01:47:01;8.60;;;6.30;;
64857;SDS011;51335;51.148;6.950;2023-08-17T01:47:31;11.68;;;6.35;;
64857;SDS011;51335;51.148;6.950;2023-08-17T01:48:01;7.60;;;5.90;;
64857;SDS011;51335;51.148;6.950;2023-08-17T01:48:32;10.63;;;6.43;;
64857;SDS011;51335;51.148;6.950;2023-08-17T01:49:02;7.80;;;5.90;;
64857;SDS011;51335;51.148;6.950;2023-08-17T01:49:32;7.38;;;6.00;;
64857;SDS011;51335;51.148;6.950;2023-08-17T01:50:03;11.20;;;6.13;;
64857;SDS011;51335;51.148;6.950;2023-08-17T01:50:33;10.57;;;6.70;;
64857;SDS011;51335;51.148;6.950;2023-08-17T01:51:03;7.40;;;5.90;;
64857;SDS011;51335;51.148;6.950;2023-08-17T01:51:34;7.32;;;5.90;;
64857;SDS011;51335;51.148;6.950;2023-08-17T01:52:04;9.98;;;6.05;;
64857;SDS011;51335;51.148;6.950;2023-08-17T01:52:34;9.48;;;5.80;;
64857;SDS011;51335;51.148;6.950;2023-08-17T01:53:04;9.98;;;6.10;;
64857;SDS011;51335;51.148;6.950;2023-08-17T01:53:35;8.15;;;5.43;;
64857;SDS011;51335;51.148;6.950;2023-08-17T01:54:05;8.70;;;6.00;;
64857;SDS011;51335;51.148;6.950;2023-08-17T01:54:36;8.40;;;6.20;;
64857;SDS011;51335;51.148;6.950;2023-08-17T01:55:06;15.30;;;5.80;;
64857;SDS011;51335;51.148;6.950;2023-08-17T01:55:37;11.23;;;6.07;;
64857;SDS011;51335;51.148;6.950;2023-08-17T01:56:07;11.05;;;6.32;;
64857;SDS011;51335;51.148;6.950;2023-08-17T01:56:38;8.30;;;6.07;;
64857;SDS011;51335;51.148;6.950;2023-08-17T01:57:08;9.40;;;6.30;;
64857;SDS011;51335;51.148;6.950;2023-08-17T01:57:38;8.88;;;6.32;;
64857;SDS011;51335;51.148;6.950;2023-08-17T01:58:08;10.73;;;5.80;;
64857;SDS011;51335;51.148;6.950;2023-08-17T01:58:39;12.20;;;6.40;;
64857;SDS011;51335;51.148;6.950;2023-08-17T01:59:09;6.82;;;5.80;;
64857;SDS011;51335;51.148;6.950;2023-08-17T01:59:39;7.97;;;6.22;;
64857;SDS011;51335;51.148;6.950;2023-08-17T02:00:10;7.10;;;5.65;;
64857;SDS011;51335;51.148;6.950;2023-08-17T02:00:40;9.20;;;6.32;;
64857;SDS011;51335;51.148;6.950;2023-08-17T02:01:10;8.68;;;6.05;;
64857;SDS011;51335;51.148;6.950;2023-08-17T02:01:41;9.02;;;6.05;;
64857;SDS011;51335;51.148;6.950;2023-08-17T02:02:11;10.40;;;5.68;;
64857;SDS011;51335;51.148;6.950;2023-08-17T02:02:41;6.75;;;5.70;;
64857;SDS011;51335;51.148;6.950;2023-08-17T02:03:11;5.88;;;5.22;;
64857;SDS011;51335;51.148;6.950;2023-08-17T02:03:42;9.80;;;5.68;;
64857;SDS011;51335;51.148;6.950;2023-08-17T02:04:12;8.40;;;5.50;;
64857;SDS011;51335;51.148;6.950;2023-08-17T02:04:42;8.50;;;5.32;;
64857;SDS011;51335;51.148;6.950;2023-08-17T02:05:13;6.22;;;5.00;;
64857;SDS011;51335;51.148;6.950;2023-08-17T02:05:46;4.95;;;4.22;;
64857;SDS011;51335;51.148;6.950;2023-08-17T02:06:16;7.00;;;4.40;;
64857;SDS011;51335;51.148;6.950;2023-08-17T02:06:47;6.78;;;4.30;;
64857;SDS011;51335;51.148;6.950;2023-08-17T02:07:17;5.38;;;4.22;;
64857;SDS011;51335;51.148;6.950;2023-08-17T02:07:47;6.80;;;4.60;;
64857;SDS011;51335;51.148;6.950;2023-08-17T02:08:17;8.40;;;4.57;;
64857;SDS011;51335;51.148;6.950;2023-08-17T02:08:48;7.80;;;4.32;;
64857;SDS011;51335;51.148;6.950;2023-08-17T02:09:18;7.22;;;4.20;;
64857;SDS011;51335;51.148;6.950;2023-08-17T02:09:48;8.23;;;4.53;;
64857;SDS011;51335;51.148;6.950;2023-08-17T02:10:18;7.18;;;3.95;;
64857;SDS011;51335;51.148;6.950;2023-08-17T02:10:49;5.75;;;4.10;;
64857;SDS011;51335;51.148;6.950;2023-08-17T02:11:19;8.38;;;4.70;;
64857;SDS011;51335;51.148;6.950;2023-08-17T02:11:49;4.95;;;4.10;;
64857;SDS011;51335;51.148;6.950;2023-08-17T02:12:19;6.00;;;3.88;;
64857;SDS011;51335;51.148;6.950;2023-08-17T02:12:50;7.80;;;4.55;;
64857;SDS011;51335;51.148;6.950;2023-08-17T02:13:20;9.40;;;4.22;;
64857;SDS011;51335;51.148;6.950;2023-08-17T02:13:50;4.85;;;4.07;;
64857;SDS011;51335;51.148;6.950;2023-08-17T02:14:20;5.82;;;3.95;;
64857;SDS011;51335;51.148;6.950;2023-08-17T02:14:51;8.75;;;4.03;;
64857;SDS011;51335;51.148;6.950;2023-08-17T02:15:21;7.13;;;4.20;;
64857;SDS011;51335;51.148;6.950;2023-08-17T02:15:51;4.35;;;3.95;;
64857;SDS011;51335;51.148;6.950;2023-08-17T02:16:21;6.20;;;3.92;;
64857;SDS011;51335;51.148;6.950;2023-08-17T02:16:52;4.97;;;3.70;;
64857;SDS011;51335;51.148;6.950;2023-08-17T02:17:22;8.73;;;3.92;;
64857;SDS011;51335;51.148;6.950;2023-08-17T02:17:52;5.72;;;4.20;;
64857;SDS011;51335;51.148;6.950;2023-08-17T02:18:23;7.70;;;4.20;;
64857;SDS011;51335;51.148;6.950;2023-08-17T02:18:53;5.40;;;3.80;;
64857;SDS011;51335;51.148;6.950;2023-08-17T02:19:23;5.30;;;4.35;;
64857;SDS011;51335;51.148;6.950;2023-08-17T02:19:53;6.75;;;4.03;;
64857;SDS011;51335;51.148;6.950;2023-08-17T02:20:24;4.82;;;3.80;;
64857;SDS011;51335;51.148;6.950;2023-08-17T02:20:54;6.28;;;3.80;;
64857;SDS011;51335;51.148;6.950;2023-08-17T02:21:24;4.75;;;3.70;;
64857;SDS011;51335;51.148;6.950;2023-08-17T02:21:54;4.35;;;3.70;;
64857;SDS011;51335;51.148;6.950;2023-08-17T02:22:25;4.22;;;3.63;;
64857;SDS011;51335;51.148;6.950;2023-08-17T02:22:55;8.20;;;4.00;;
64857;SDS011;51335;51.148;6.950;2023-08-17T02:23:25;4.38;;;3.42;;
64857;SDS011;51335;51.148;6.950;2023-08-17T02:23:55;7.60;;;3.88;;
64857;SDS011;51335;51.148;6.950;2023-08-17T02:24:26;6.28;;;3.97;;
64857;SDS011;51335;51.148;6.950;2023-08-17T02:24:56;5.93;;;3.85;;
64857;SDS011;51335;51.148;6.950;2023-08-17T02:25:26;4.47;;;3.58;;
64857;SDS011;51335;51.148;6.950;2023-08-17T02:25:56;4.78;;;3.60;;
64857;SDS011;51335;51.148;6.950;2023-08-17T02:26:27;4.72;;;3.50;;
64857;SDS011;51335;51.148;6.950;2023-08-17T02:26:57;5.10;;;3.80;;
64857;SDS011;51335;51.148;6.950;2023-08-17T02:27:27;8.68;;;3.90;;
64857;SDS011;51335;51.148;6.950;2023-08-17T02:27:57;6.18;;;4.00;;
64857;SDS011;51335;51.148;6.950;2023-08-17T02:28:28;5.05;;;4.00;;
64857;SDS011;51335;51.148;6.950;2023-08-17T02:28:58;5.72;;;3.60;;
64857;SDS011;51335;51.148;6.950;2023-08-17T02:29:28;8.63;;;3.70;;
64857;SDS011;51335;51.148;6.950;2023-08-17T02:29:58;6.30;;;3.72;;
64857;SDS011;51335;51.148;6.950;2023-08-17T02:30:29;4.78;;;3.80;;
64857;SDS011;51335;51.148;6.950;2023-08-17T02:30:59;9.05;;;4.05;;
64857;SDS011;51335;51.148;6.950;2023-08-17T02:31:29;4.90;;;4.20;;
64857;SDS011;51335;51.148;6.950;2023-08-17T02:31:59;8.73;;;3.97;;
64857;SDS011;51335;51.148;6.950;2023-08-17T02:32:30;7.38;;;4.13;;
64857;SDS011;51335;51.148;6.950;2023-08-17T02:33:00;4.45;;;3.88;;
64857;SDS011;51335;51.148;6.950;2023-08-17T02:33:30;5.65;;;4.20;;
64857;SDS011;51335;51.148;6.950;2023-08-17T02:34:01;6.93;;;4.38;;
64857;SDS011;51335;51.148;6.950;2023-08-17T02:34:31;7.78;;;4.65;;
64857;SDS011;51335;51.148;6.950;2023-08-17T02:35:01;5.20;;;4.15;;
64857;SDS011;51335;51.148;6.950;2023-08-17T02:35:32;5.05;;;4.07;;
64857;SDS011;51335;51.148;6.950;2023-08-17T02:36:02;9.65;;;4.30;;
64857;SDS011;51335;51.148;6.950;2023-08-17T02:36:33;5.80;;;3.97;;
64857;SDS011;51335;51.148;6.950;2023-08-17T02:37:03;5.63;;;4.18;;
64857;SDS011;51335;51.148;6.950;2023-08-17T02:37:33;7.00;;;4.25;;
64857;SDS011;51335;51.148;6.950;2023-08-17T02:38:04;6.28;;;4.15;;
64857;SDS011;51335;51.148;6.950;2023-08-17T02:38:34;8.85;;;4.20;;
64857;SDS011;51335;51.148;6.950;2023-08-17T02:39:04;6.35;;;4.50;;
64857;SDS011;51335;51.148;6.950;2023-08-17T02:39:35;6.85;;;4.35;;
64857;SDS011;51335;51.148;6.950;2023-08-17T02:40:05;6.95;;;4.50;;
64857;SDS011;51335;51.148;6.950;2023-08-17T02:40:36;7.60;;;4.65;;
64857;SDS011;51335;51.148;6.950;2023-08-17T02:41:06;5.20;;;4.00;;
64857;SDS011;51335;51.148;6.950;2023-08-17T02:41:36;5.40;;;4.50;;
64857;SDS011;51335;51.148;6.950;2023-08-17T02:42:07;5.85;;;4.28;;
64857;SDS011;51335;51.148;6.950;2023-08-17T02:42:37;6.15;;;4.25;;
64857;SDS011;51335;51.148;6.950;2023-08-17T02:43:07;5.28;;;4.05;;
64857;SDS011;51335;51.148;6.950;2023-08-17T02:43:37;7.25;;;4.20;;
64857;SDS011;51335;51.148;6.950;2023-08-17T02:44:08;7.75;;;4.05;;
64857;SDS011;51335;51.148;6.950;2023-08-17T02:44:38;5.72;;;4.18;;
64857;SDS011;51335;51.148;6.950;2023-08-17T02:45:08;8.82;;;4.65;;
64857;SDS011;51335;51.148;6.950;2023-08-17T02:45:39;6.07;;;3.90;;
64857;SDS011;51335;51.148;6.950;2023-08-17T02:46:09;8.27;;;4.38;;
64857;SDS011;51335;51.148;6.950;2023-08-17T02:46:39;6.20;;;4.05;;
64857;SDS011;51335;51.148;6.950;2023-08-17T02:47:10;7.50;;;4.68;;
64857;SDS011;51335;51.148;6.950;2023-08-17T02:47:40;6.63;;;4.60;;
64857;SDS011;51335;51.148;6.950;2023-08-17T02:48:10;6.05;;;4.85;;
64857;SDS011;51335;51.148;6.950;2023-08-17T02:48:41;6.53;;;4.85;;
64857;SDS011;51335;51.148;6.950;2023-08-17T02:49:11;7.70;;;5.20;;
64857;SDS011;51335;51.148;6.950;2023-08-17T02:49:41;6.72;;;5.10;;
64857;SDS011;51335;51.148;6.950;2023-08-17T02:50:11;8.27;;;5.18;;
64857;SDS011;51335;51.148;6.950;2023-08-17T02:50:42;8.43;;;4.78;;
64857;SDS011;51335;51.148;6.950;2023-08-17T02:51:12;6.90;;;4.88;;
64857;SDS011;51335;51.148;6.950;2023-08-17T02:51:42;5.95;;;5.28;;
64857;SDS011;51335;51.148;6.950;2023-08-17T02:52:12;6.63;;;5.07;;
64857;SDS011;51335;51.148;6.950;2023-08-17T02:52:43;8.60;;;5.03;;
64857;SDS011;51335;51.148;6.950;2023-08-17T02:53:13;8.23;;;5.13;;
64857;SDS011;51335;51.148;6.950;2023-08-17T02:53:43;6.32;;;4.95;;
64857;SDS011;51335;51.148;6.950;2023-08-17T02:54:13;7.72;;;5.25;;
64857;SDS011;51335;51.148;6.950;2023-08-17T02:54:44;7.95;;;5.55;;
64857;SDS011;51335;51.148;6.950;2023-08-17T02:55:14;8.30;;;5.00;;
64857;SDS011;51335;51.148;6.950;2023-08-17T02:55:44;7.03;;;5.25;;
64857;SDS011;51335;51.148;6.950;2023-08-17T02:56:15;7.40;;;4.90;;
64857;SDS011;51335;51.148;6.950;2023-08-17T02:56:45;10.48;;;5.28;;
64857;SDS011;51335;51.148;6.950;2023-08-17T02:57:15;6.68;;;5.25;;
64857;SDS011;51335;51.148;6.950;2023-08-17T02:57:45;6.90;;;5.35;;
64857;SDS011;51335;51.148;6.950;2023-08-17T02:58:16;9.00;;;5.53;;
64857;SDS011;51335;51.148;6.950;2023-08-17T02:58:46;10.68;;;5.60;;
64857;SDS011;51335;51.148;6.950;2023-08-17T02:59:16;7.82;;;5.35;;
64857;SDS011;51335;51.148;6.950;2023-08-17T02:59:47;7.65;;;5.57;;
64857;SDS011;51335;51.148;6.950;2023-08-17T03:00:17;7.57;;;5.40;;
64857;SDS011;51335;51.148;6.950;2023-08-17T03:00:47;7.57;;;5.32;;
64857;SDS011;51335;51.148;6.950;2023-08-17T03:01:17;7.85;;;5.40;;
64857;SDS011;51335;51.148;6.950;2023-08-17T03:01:48;7.45;;;5.25;;
64857;SDS011;51335;51.148;6.950;2023-08-17T03:02:18;6.32;;;5.30;;
64857;SDS011;51335;51.148;6.950;2023-08-17T03:02:48;9.48;;;4.97;;
64857;SDS011;51335;51.148;6.950;2023-08-17T03:03:19;7.95;;;5.07;;
64857;SDS011;51335;51.148;6.950;2023-08-17T03:03:49;7.43;;;5.07;;
64857;SDS011;51335;51.148;6.950;2023-08-17T03:04:19;8.13;;;5.22;;
64857;SDS011;51335;51.148;6.950;2023-08-17T03:04:49;7.50;;;5.07;;
64857;SDS011;51335;51.148;6.950;2023-08-17T03:05:20;7.57;;;4.97;;
64857;SDS011;51335;51.148;6.950;2023-08-17T03:05:50;9.13;;;5.40;;
64857;SDS011;51335;51.148;6.950;2023-08-17T03:06:20;8.68;;;5.10;;
64857;SDS011;51335;51.148;6.950;2023-08-17T03:06:51;6.88;;;5.10;;
64857;SDS011;51335;51.148;6.950;2023-08-17T03:07:21;5.65;;;4.72;;
64857;SDS011;51335;51.148;6.950;2023-08-17T03:07:51;8.45;;;4.97;;
64857;SDS011;51335;51.148;6.950;2023-08-17T03:08:21;8.15;;;5.25;;
64857;SDS011;51335;51.148;6.950;2023-08-17T03:08:52;8.00;;;5.25;;
64857;SDS011;51335;51.148;6.950;2023-08-17T03:09:22;7.18;;;5.53;;